Time;durP1;ratioP1;P1;durP2;ratioP2;P2;SDS_P1;SDS_P2;PMS_P1;PMS_P2;Temp;Humidity;BMP_temperature;BMP_pressure;BME280_temperature;BME280_humidity;BME280_pressure;Samples;Min_cycle;Max_cycle;Signal;HPM_P1;HPM_P2
2023/07/28 00:02:31;;;;;;;;;;;;;;;;;;4947727;28;20366;-73
2023/07/28 00:05:18;;;;;;;;;;;;;;;;;;4948401;28;19925;-74
2023/07/28 00:08:04;;;;;;;;;;;;;;;;;;4948544;28;19926;-74
2023/07/28 00:10:51;;;;;;;;;;;;;;;;;;4946650;28;19923;-73
2023/07/28 00:13:37;;;;;;;;;;;;;;;;;;4948928;28;19925;-75
2023/07/28 00:16:24;;;;;;;;;;;;;;;;;;4945685;28;20405;-75
2023/07/28 00:19:10;;;;;;;;;;;;;;;;;;4943507;28;19923;-74
2023/07/28 00:21:57;;;;;;;;;;;;;;;;;;4938656;28;19918;-75
2023/07/28 00:24:43;;;;;;;;;;;;;;;;;;4943865;28;19925;-76
2023/07/28 00:27:30;;;;;;;;;;;;;;;;;;4938223;28;19915;-75
2023/07/28 00:30:16;;;;;;;;;;;;;;;;;;4946696;28;19923;-76
2023/07/28 00:33:03;;;;;;;;;;;;;;;;;;4948556;28;19918;-75
2023/07/28 00:35:49;;;;;;;;;;;;;;;;;;4947458;28;19926;-75
2023/07/28 00:38:36;;;;;;;;;;;;;;;;;;4947587;28;19928;-75
2023/07/28 00:41:22;;;;;;;;;;;;;;;;;;4931588;28;19925;-75
2023/07/28 00:44:09;;;;;;;;;;;;;;;;;;4947851;28;19919;-75
2023/07/28 00:46:55;;;;;;;;;;;;;;;;;;4943318;28;20383;-75
2023/07/28 00:49:42;;;;;;;;;;;;;;;;;;4946297;28;19948;-76
2023/07/28 00:52:28;;;;;;;;;;;;;;;;;;4947748;28;19923;-75
2023/07/28 00:55:15;;;;;;;;;;;;;;;;;;4945328;28;20298;-76
2023/07/28 00:58:01;;;;;;;;;;;;;;;;;;4950801;28;19930;-75
2023/07/28 01:00:48;;;;;;;;;;;;;;;;;;4956450;28;19929;-76
2023/07/28 01:03:34;;;;;;;;;;;;;;;;;;4965942;28;19925;-75
2023/07/28 01:06:21;;;;;;;;;;;;;;;;;;4959131;28;20374;-76
2023/07/28 01:09:07;;;;;;;;;;;;;;;;;;4964794;28;19918;-75
2023/07/28 01:11:54;;;;;;;;;;;;;;;;;;4961351;28;19941;-75
2023/07/28 01:14:40;;;;;;;;;;;;;;;;;;4960352;28;19926;-75
2023/07/28 01:17:27;;;;;;;;;;;;;;;;;;4960378;28;20426;-76
2023/07/28 01:20:13;;;;;;;;;;;;;;;;;;4942363;28;19930;-75
2023/07/28 01:23:00;;;;;;;;;;;;;;;;;;4942938;28;21129;-76
2023/07/28 01:25:46;;;;;;;;;;;;;;;;;;4945592;28;19964;-74
2023/07/28 01:28:33;;;;;;;;;;;;;;;;;;4943411;28;19946;-74
2023/07/28 01:31:19;;;;;;;;;;;;;;;;;;4946744;28;19922;-75
2023/07/28 01:34:05;;;;;;;;;;;;;;;;;;4945630;28;19925;-74
2023/07/28 01:36:52;;;;;;;;;;;;;;;;;;4936659;28;19926;-74
2023/07/28 01:39:38;;;;;;;;;;;;;;;;;;4946785;28;19929;-75
2023/07/28 01:42:25;;;;;;;;;;;;;;;;;;4948184;28;19925;-74
2023/07/28 01:45:11;;;;;;;;;;;;;;;;;;4942193;28;20408;-74
2023/07/28 01:47:58;;;;;;;;;;;;;;;;;;4945179;28;19923;-75
2023/07/28 01:50:44;;;;;;;;;;;;;;;;;;4947719;28;20319;-74
2023/07/28 01:53:31;;;;;;;;;;;;;;;;;;4942458;28;19919;-75
2023/07/28 01:56:17;;;;;;;;;;;;;;;;;;4953196;28;19930;-75
2023/07/28 01:59:04;;;;;;;;;;;;;;;;;;4954874;28;19941;-75
2023/07/28 02:01:50;;;;;;;;;;;;;;;;;;4951079;28;19922;-76
2023/07/28 02:04:37;;;;;;;;;;;;;;;;;;4954830;28;19914;-76
2023/07/28 02:07:24;;;;;;;;;;;;;;;;;;4953184;28;19918;-76
2023/07/28 02:10:10;;;;;;;;;;;;;;;;;;4964094;28;19922;-76
2023/07/28 02:12:57;;;;;;;;;;;;;;;;;;4962268;28;19925;-76
2023/07/28 02:15:43;;;;;;;;;;;;;;;;;;4965559;28;19937;-76
2023/07/28 02:18:29;;;;;;;;;;;;;;;;;;4956125;28;20397;-75
2023/07/28 02:21:16;;;;;;;;;;;;;;;;;;4965038;28;20008;-75
2023/07/28 02:24:02;;;;;;;;;;;;;;;;;;4965844;28;20313;-74
2023/07/28 02:26:49;;;;;;;;;;;;;;;;;;4964828;28;19926;-76
2023/07/28 02:29:35;;;;;;;;;;;;;;;;;;4965977;28;19925;-74
2023/07/28 02:32:22;;;;;;;;;;;;;;;;;;4962274;28;19922;-74
2023/07/28 02:35:10;;;;;;;;;;;;;;;;;;4959835;28;19926;-73
2023/07/28 02:37:56;;;;;;;;;;;;;;;;;;4964786;28;19922;-75
2023/07/28 02:40:43;;;;;;;;;;;;;;;;;;4961197;28;20386;-74
2023/07/28 02:43:29;;;;;;;;;;;;;;;;;;4959635;28;19963;-74
2023/07/28 02:46:16;;;;;;;;;;;;;;;;;;4959719;28;19955;-74
2023/07/28 02:49:03;;;;;;;;;;;;;;;;;;4962767;28;20595;-75
2023/07/28 02:51:50;;;;;;;;;;;;;;;;;;4964924;28;19926;-75
2023/07/28 02:54:36;;;;;;;;;;;;;;;;;;4964749;28;19964;-75
2023/07/28 02:57:23;;;;;;;;;;;;;;;;;;4958255;28;20306;-75
2023/07/28 03:00:10;;;;;;;;;;;;;;;;;;4955631;28;19928;-75
2023/07/28 03:02:57;;;;;;;;;;;;;;;;;;4962106;28;19921;-75
2023/07/28 03:05:43;;;;;;;;;;;;;;;;;;4964066;28;19929;-74
2023/07/28 03:08:29;;;;;;;;;;;;;;;;;;4959052;28;20249;-73
2023/07/28 03:11:16;;;;;;;;;;;;;;;;;;4962457;28;20907;-73
2023/07/28 03:14:02;;;;;;;;;;;;;;;;;;4962534;28;20444;-73
2023/07/28 03:16:49;;;;;;;;;;;;;;;;;;4960647;28;19930;-74
2023/07/28 03:19:35;;;;;;;;;;;;;;;;;;4962933;28;19928;-73
2023/07/28 03:22:22;;;;;;;;;;;;;;;;;;4945528;28;19946;-73
2023/07/28 03:25:08;;;;;;;;;;;;;;;;;;4947591;28;20390;-74
2023/07/28 03:27:55;;;;;;;;;;;;;;;;;;4951205;28;19925;-74
2023/07/28 03:30:41;;;;;;;;;;;;;;;;;;4960764;28;20392;-73
2023/07/28 03:33:28;;;;;;;;;;;;;;;;;;4962523;28;19919;-73
2023/07/28 03:36:14;;;;;;;;;;;;;;;;;;4960195;28;20382;-73
2023/07/28 03:39:01;;;;;;;;;;;;;;;;;;4963076;28;19925;-74
2023/07/28 03:41:47;;;;;;;;;;;;;;;;;;4962670;28;20653;-73
2023/07/28 03:44:34;;;;;;;;;;;;;;;;;;4962414;28;19918;-74
2023/07/28 03:47:20;;;;;;;;;;;;;;;;;;4959989;28;19922;-73
2023/07/28 03:50:07;;;;;;;;;;;;;;;;;;4961353;28;20293;-74
2023/07/28 03:52:53;;;;;;;;;;;;;;;;;;4955705;28;19914;-74
2023/07/28 03:55:39;;;;;;;;;;;;;;;;;;4957424;28;19941;-73
2023/07/28 03:58:26;;;;;;;;;;;;;;;;;;4954179;28;20491;-74
2023/07/28 04:01:13;;;;;;;;;;;;;;;;;;4963028;28;19934;-75
2023/07/28 04:04:03;;;;;;;;;;;;;;;;;;4961315;28;19914;-75
2023/07/28 04:06:50;;;;;;;;;;;;;;;;;;4974938;28;19922;-75
2023/07/28 04:09:37;;;;;;;;;;;;;;;;;;4956880;28;19929;-75
2023/07/28 04:12:23;;;;;;;;;;;;;;;;;;4962024;28;19918;-75
2023/07/28 04:15:10;;;;;;;;;;;;;;;;;;4957353;28;19930;-74
2023/07/28 04:17:56;;;;;;;;;;;;;;;;;;4960487;28;19926;-74
2023/07/28 04:20:43;;;;;;;;;;;;;;;;;;4958610;28;19928;-75
2023/07/28 04:23:29;;;;;;;;;;;;;;;;;;4952496;28;19945;-75
2023/07/28 04:26:15;;;;;;;;;;;;;;;;;;4957744;28;20250;-75
2023/07/28 04:29:02;;;;;;;;;;;;;;;;;;4956647;28;19925;-75
2023/07/28 04:31:48;;;;;;;;;;;;;;;;;;4962723;28;20294;-74
2023/07/28 04:34:35;;;;;;;;;;;;;;;;;;4958679;28;19925;-75
2023/07/28 04:37:21;;;;;;;;;;;;;;;;;;4957846;28;20276;-75
2023/07/28 04:40:08;;;;;;;;;;;;;;;;;;4965295;28;19918;-75
2023/07/28 04:42:55;;;;;;;;;;;;;;;;;;4965103;28;19922;-75
2023/07/28 04:45:41;;;;;;;;;;;;;;;;;;4966721;28;20484;-74
2023/07/28 04:48:28;;;;;;;;;;;;;;;;;;4956942;28;20306;-75
2023/07/28 04:51:14;;;;;;;;;;;;;;;;;;4962032;28;19921;-74
2023/07/28 04:54:01;;;;;;;;;;;;;;;;;;4963289;28;19929;-76
2023/07/28 04:56:49;;;;;;;;;;;;;;;;;;4960063;28;20310;-75
2023/07/28 04:59:36;;;;;;;;;;;;;;;;;;4963153;28;19929;-75
2023/07/28 05:02:22;;;;;;;;;;;;;;;;;;4967769;28;20683;-75
2023/07/28 05:05:09;;;;;;;;;;;;;;;;;;4955948;28;21211;-74
2023/07/28 05:07:55;;;;;;;;;;;;;;;;;;4966670;28;19914;-75
2023/07/28 05:10:45;;;;;;;;;;;;;;;;;;4965668;28;19924;-74
2023/07/28 05:13:31;;;;;;;;;;;;;;;;;;4967804;28;20298;-75
2023/07/28 05:16:17;;;;;;;;;;;;;;;;;;4965134;28;19930;-73
2023/07/28 05:19:04;;;;;;;;;;;;;;;;;;4951510;28;19928;-73
2023/07/28 05:21:50;;;;;;;;;;;;;;;;;;4959172;28;19944;-74
2023/07/28 05:24:37;;;;;;;;;;;;;;;;;;4966489;28;19922;-74
2023/07/28 05:27:23;;;;;;;;;;;;;;;;;;4960978;28;19929;-75
2023/07/28 05:30:10;;;;;;;;;;;;;;;;;;4955356;28;20401;-75
2023/07/28 05:32:56;;;;;;;;;;;;;;;;;;4953351;28;19922;-74
2023/07/28 05:35:43;;;;;;;;;;;;;;;;;;4954797;28;19926;-74
2023/07/28 05:38:29;;;;;;;;;;;;;;;;;;4947369;28;20602;-74
2023/07/28 05:41:16;;;;;;;;;;;;;;;;;;4953306;28;19922;-75
2023/07/28 05:44:02;;;;;;;;;;;;;;;;;;4956534;28;19918;-75
2023/07/28 05:46:49;;;;;;;;;;;;;;;;;;4963871;28;19933;-74
2023/07/28 05:49:36;;;;;;;;;;;;;;;;;;4971143;28;19928;-75
2023/07/28 05:52:22;;;;;;;;;;;;;;;;;;4963762;28;19918;-75
2023/07/28 05:55:09;;;;;;;;;;;;;;;;;;4973445;28;19933;-75
2023/07/28 05:57:55;;;;;;;;;;;;;;;;;;4965151;28;20010;-75
2023/07/28 06:00:42;;;;;;;;;;;;;;;;;;4967080;28;20366;-73
2023/07/28 06:03:29;;;;;;;;;;;;;;;;;;4945123;28;19923;-74
2023/07/28 06:06:15;;;;;;;;;;;;;;;;;;4944412;28;19918;-75
2023/07/28 06:09:02;;;;;;;;;;;;;;;;;;4964443;28;19929;-74
2023/07/28 06:11:48;;;;;;;;;;;;;;;;;;4964576;28;20571;-72
2023/07/28 06:14:35;;;;;;;;;;;;;;;;;;4956444;28;19925;-74
2023/07/28 06:17:21;;;;;;;;;;;;;;;;;;4948128;28;19922;-73
2023/07/28 06:20:09;;;;;;;;;;;;;;;;;;4950195;28;19922;-73
2023/07/28 06:22:55;;;;;;;;;;;;;;;;;;4956999;28;19922;-74
2023/07/28 06:25:45;;;;;;;;;;;;;;;;;;4951955;28;19922;-74
2023/07/28 06:28:32;;;;;;;;;;;;;;;;;;4964651;28;19918;-74
2023/07/28 06:31:18;;;;;;;;;;;;;;;;;;4964795;28;19922;-73
2023/07/28 06:34:05;;;;;;;;;;;;;;;;;;4964650;28;19918;-74
2023/07/28 06:36:52;;;;;;;;;;;;;;;;;;4963619;28;19929;-74
2023/07/28 06:39:39;;;;;;;;;;;;;;;;;;4965058;28;20381;-73
2023/07/28 06:42:36;;;;;;;;;;;;;;;;;;;;;
2023/07/28 06:45:23;;;;;;;;;;;;;;;;;;4946931;28;19925;-74
2023/07/28 06:48:09;;;;;;;;;;;;;;;;;;4954276;28;19914;-74
2023/07/28 06:50:56;;;;;;;;;;;;;;;;;;4961345;28;19918;-74
2023/07/28 06:53:42;;;;;;;;;;;;;;;;;;4946040;28;19981;-74
2023/07/28 06:56:29;;;;;;;;;;;;;;;;;;4948602;28;19949;-74
2023/07/28 06:59:15;;;;;;;;;;;;;;;;;;4944965;28;19930;-74
2023/07/28 07:02:02;;;;;;;;;;;;;;;;;;4958255;28;19918;-74
2023/07/28 07:04:48;;;;;;;;;;;;;;;;;;4957485;28;19929;-74
2023/07/28 07:07:35;;;;;;;;;;;;;;;;;;4965859;28;19921;-74
2023/07/28 07:10:21;;;;;;;;;;;;;;;;;;4965684;28;19934;-74
2023/07/28 07:13:08;;;;;;;;;;;;;;;;;;4944653;28;19926;-75
2023/07/28 07:15:54;;;;;;;;;;;;;;;;;;4965525;28;19934;-73
2023/07/28 07:18:41;;;;;;;;;;;;;;;;;;4951448;28;20440;-74
2023/07/28 07:21:27;;;;;;;;;;;;;;;;;;4955941;28;19932;-74
2023/07/28 07:24:13;;;;;;;;;;;;;;;;;;4942156;28;19926;-74
2023/07/28 07:27:00;;;;;;;;;;;;;;;;;;4943374;28;19922;-77
2023/07/28 07:29:46;;;;;;;;;;;;;;;;;;4942890;28;19923;-74
2023/07/28 07:32:34;;;;;;;;;;;;;;;;;;4946430;28;19930;-75
2023/07/28 07:35:20;;;;;;;;;;;;;;;;;;4952389;28;20582;-75
2023/07/28 07:38:08;;;;;;;;;;;;;;;;;;4948007;28;19927;-75
2023/07/28 07:40:55;;;;;;;;;;;;;;;;;;4947779;28;19930;-75
2023/07/28 07:43:41;;;;;;;;;;;;;;;;;;4965270;28;19918;-75
2023/07/28 07:46:28;;;;;;;;;;;;;;;;;;4958624;28;19941;-75
2023/07/28 07:49:14;;;;;;;;;;;;;;;;;;4963764;28;19948;-75
2023/07/28 07:52:01;;;;;;;;;;;;;;;;;;4963575;28;19927;-75
2023/07/28 07:54:47;;;;;;;;;;;;;;;;;;4963570;28;19929;-75
2023/07/28 07:57:34;;;;;;;;;;;;;;;;;;4958805;28;19937;-74
2023/07/28 08:00:20;;;;;;;;;;;;;;;;;;4957163;28;19929;-75
2023/07/28 08:03:07;;;;;;;;;;;;;;;;;;4949096;28;19923;-75
2023/07/28 08:05:53;;;;;;;;;;;;;;;;;;4943068;28;19922;-75
2023/07/28 08:08:40;;;;;;;;;;;;;;;;;;4943486;28;19918;-74
2023/07/28 08:11:26;;;;;;;;;;;;;;;;;;4947493;28;19922;-75
2023/07/28 08:14:13;;;;;;;;;;;;;;;;;;4953695;28;19919;-74
2023/07/28 08:17:00;;;;;;;;;;;;;;;;;;4965322;28;19926;-74
2023/07/28 08:19:46;;;;;;;;;;;;;;;;;;4962183;28;19918;-75
2023/07/28 08:22:33;;;;;;;;;;;;;;;;;;4944454;28;19919;-75
2023/07/28 08:25:19;;;;;;;;;;;;;;;;;;4952564;28;19926;-74
2023/07/28 08:28:06;;;;;;;;;;;;;;;;;;4966556;28;20385;-75
2023/07/28 08:30:54;;;;;;;;;;;;;;;;;;4951579;28;19931;-75
2023/07/28 08:33:41;;;;;;;;;;;;;;;;;;4941324;28;19937;-74
2023/07/28 08:36:28;;;;;;;;;;;;;;;;;;4958119;28;19940;-75
2023/07/28 08:39:15;;;;;;;;;;;;;;;;;;4954632;28;19925;-73
2023/07/28 08:42:01;;;;;;;;;;;;;;;;;;4943841;28;19921;-73
2023/07/28 08:44:48;;;;;;;;;;;;;;;;;;4944873;28;19930;-74
2023/07/28 08:47:34;;;;;;;;;;;;;;;;;;4944177;28;20397;-73
2023/07/28 08:50:21;;;;;;;;;;;;;;;;;;4959495;28;20365;-74
2023/07/28 08:53:07;;;;;;;;;;;;;;;;;;4938042;28;21009;-73
2023/07/28 08:55:54;;;;;;;;;;;;;;;;;;4955952;28;19925;-74
2023/07/28 08:58:40;;;;;;;;;;;;;;;;;;4956965;28;19933;-76
2023/07/28 09:01:27;;;;;;;;;;;;;;;;;;4967029;28;19922;-76
2023/07/28 09:04:13;;;;;;;;;;;;;;;;;;4941045;28;20373;-77
2023/07/28 09:07:00;;;;;;;;;;;;;;;;;;4964405;28;19929;-76
2023/07/28 09:09:46;;;;;;;;;;;;;;;;;;4965457;28;19922;-78
2023/07/28 09:12:33;;;;;;;;;;;;;;;;;;4957447;28;19922;-77
2023/07/28 09:15:20;;;;;;;;;;;;;;;;;;4965877;28;19934;-77
2023/07/28 09:18:07;;;;;;;;;;;;;;;;;;4958201;28;19914;-77
2023/07/28 09:20:53;;;;;;;;;;;;;;;;;;4960662;28;19929;-74
2023/07/28 09:23:40;;;;;;;;;;;;;;;;;;4966020;28;19919;-73
2023/07/28 09:26:26;;;;;;;;;;;;;;;;;;4941485;28;19928;-78
2023/07/28 09:29:13;;;;;;;;;;;;;;;;;;4953225;28;20448;-78
2023/07/28 09:32:00;;;;;;;;;;;;;;;;;;4948960;28;19945;-78
2023/07/28 09:34:49;;;;;;;;;;;;;;;;;;4950517;28;20279;-78
2023/07/28 09:37:35;;;;;;;;;;;;;;;;;;4936526;28;19938;-77
2023/07/28 09:40:22;;;;;;;;;;;;;;;;;;4942114;28;19929;-77
2023/07/28 09:43:10;;;;;;;;;;;;;;;;;;4944976;28;19930;-78
2023/07/28 09:45:56;;;;;;;;;;;;;;;;;;4941925;28;19929;-79
2023/07/28 09:48:43;;;;;;;;;;;;;;;;;;4950447;28;19925;-77
2023/07/28 09:51:30;;;;;;;;;;;;;;;;;;4942764;28;19925;-76
2023/07/28 09:54:16;;;;;;;;;;;;;;;;;;4948451;28;19918;-77
2023/07/28 09:57:04;;;;;;;;;;;;;;;;;;4945832;28;19931;-77
2023/07/28 09:59:50;;;;;;;;;;;;;;;;;;4961719;28;19929;-78
2023/07/28 10:02:37;;;;;;;;;;;;;;;;;;4964847;28;19945;-76
2023/07/28 10:05:24;;;;;;;;;;;;;;;;;;4944784;28;19919;-75
2023/07/28 10:08:10;;;;;;;;;;;;;;;;;;4957916;28;20294;-77
2023/07/28 10:10:57;;;;;;;;;;;;;;;;;;4949603;28;19918;-84
2023/07/28 10:13:44;;;;;;;;;;;;;;;;;;4955602;28;19925;-78
2023/07/28 10:16:31;;;;;;;;;;;;;;;;;;4959189;28;19926;-78
2023/07/28 10:19:17;;;;;;;;;;;;;;;;;;4959059;28;19919;-78
2023/07/28 10:22:03;;;;;;;;;;;;;;;;;;4963680;28;19944;-78
2023/07/28 10:24:51;;;;;;;;;;;;;;;;;;4958241;28;19929;-78
2023/07/28 10:27:38;;;;;;;;;;;;;;;;;;4965727;28;19926;-81
2023/07/28 10:30:24;;;;;;;;;;;;;;;;;;4964469;28;19925;-81
2023/07/28 10:33:11;;;;;;;;;;;;;;;;;;4939700;28;19929;-82
2023/07/28 10:35:57;;;;;;;;;;;;;;;;;;4963126;28;19932;-74
2023/07/28 10:38:45;;;;;;;;;;;;;;;;;;4961563;28;20611;-73
2023/07/28 10:41:31;;;;;;;;;;;;;;;;;;4960032;28;20839;-73
2023/07/28 10:44:18;;;;;;;;;;;;;;;;;;4955930;28;19922;-73
2023/07/28 10:47:04;;;;;;;;;;;;;;;;;;4950271;28;19930;-77
2023/07/28 10:49:51;;;;;;;;;;;;;;;;;;4937947;28;19927;-76
2023/07/28 10:52:37;;;;;;;;;;;;;;;;;;4941813;28;20417;-76
2023/07/28 10:55:24;;;;;;;;;;;;;;;;;;4955455;28;19918;-76
2023/07/28 10:58:10;;;;;;;;;;;;;;;;;;4954045;28;20308;-75
2023/07/28 11:00:59;;;;;;;;;;;;;;;;;;4963840;28;19925;-75
2023/07/28 11:03:46;;;;;;;;;;;;;;;;;;4957661;28;19922;-78
2023/07/28 11:06:32;;;;;;;;;;;;;;;;;;4962645;28;20545;-77
2023/07/28 11:09:19;;;;;;;;;;;;;;;;;;4953141;28;20366;-76
2023/07/28 11:12:05;;;;;;;;;;;;;;;;;;4957069;28;19945;-75
2023/07/28 11:14:52;;;;;;;;;;;;;;;;;;4955217;28;19926;-75
2023/07/28 11:17:39;;;;;;;;;;;;;;;;;;4964340;28;20306;-78
2023/07/28 11:20:26;;;;;;;;;;;;;;;;;;4958046;28;19933;-75
2023/07/28 11:23:12;;;;;;;;;;;;;;;;;;4961951;28;19922;-75
2023/07/28 11:25:58;;;;;;;;;;;;;;;;;;4960324;28;19932;-76
2023/07/28 11:28:45;;;;;;;;;;;;;;;;;;4960261;28;19924;-76
2023/07/28 11:31:33;;;;;;;;;;;;;;;;;;4958001;28;20378;-75
2023/07/28 11:34:19;;;;;;;;;;;;;;;;;;4952559;28;19926;-75
2023/07/28 11:37:08;;;;;;;;;;;;;;;;;;4956573;28;19930;-74
2023/07/28 11:39:55;;;;;;;;;;;;;;;;;;4960874;28;19922;-74
2023/07/28 11:42:41;;;;;;;;;;;;;;;;;;4959294;28;19925;-74
2023/07/28 11:45:28;;;;;;;;;;;;;;;;;;4957311;28;19922;-76
2023/07/28 11:48:15;;;;;;;;;;;;;;;;;;4971817;28;20025;-74
2023/07/28 11:51:01;;;;;;;;;;;;;;;;;;4955180;28;19940;-75
2023/07/28 11:53:48;;;;;;;;;;;;;;;;;;4952053;28;19922;-76
2023/07/28 11:56:34;;;;;;;;;;;;;;;;;;4970422;28;19933;-76
2023/07/28 11:59:21;;;;;;;;;;;;;;;;;;4965180;28;19961;-74
2023/07/28 12:02:07;;;;;;;;;;;;;;;;;;4959047;28;19925;-75
2023/07/28 12:04:54;;;;;;;;;;;;;;;;;;4967554;28;19925;-76
2023/07/28 12:07:41;;;;;;;;;;;;;;;;;;4963617;28;19922;-76
2023/07/28 12:10:27;;;;;;;;;;;;;;;;;;4967637;28;19924;-76
2023/07/28 12:13:14;;;;;;;;;;;;;;;;;;4969204;28;19918;-77
2023/07/28 12:16:00;;;;;;;;;;;;;;;;;;4967104;28;19937;-76
2023/07/28 12:18:47;;;;;;;;;;;;;;;;;;4954009;28;20442;-74
2023/07/28 12:21:33;;;;;;;;;;;;;;;;;;4955769;28;19926;-75
2023/07/28 12:24:19;;;;;;;;;;;;;;;;;;4961773;28;20227;-75
2023/07/28 12:27:06;;;;;;;;;;;;;;;;;;4969621;28;20324;-75
2023/07/28 12:29:52;;;;;;;;;;;;;;;;;;4962418;28;19914;-77
2023/07/28 12:32:40;;;;;;;;;;;;;;;;;;4966657;28;19926;-77
2023/07/28 12:35:30;;;;;;;;;;;;;;;;;;4964067;28;19932;-76
2023/07/28 12:38:17;;;;;;;;;;;;;;;;;;4961448;28;19926;-75
2023/07/28 12:41:03;;;;;;;;;;;;;;;;;;4964889;28;19925;-77
2023/07/28 12:43:50;;;;;;;;;;;;;;;;;;4957729;28;19933;-77
2023/07/28 12:46:37;;;;;;;;;;;;;;;;;;4962832;28;19932;-77
2023/07/28 12:49:24;;;;;;;;;;;;;;;;;;4969101;28;19918;-77
2023/07/28 12:52:10;;;;;;;;;;;;;;;;;;4955491;28;19933;-76
2023/07/28 12:54:57;;;;;;;;;;;;;;;;;;4949144;28;19973;-77
2023/07/28 12:57:44;;;;;;;;;;;;;;;;;;4948989;28;19937;-87
2023/07/28 13:00:30;;;;;;;;;;;;;;;;;;4956184;28;19929;-88
2023/07/28 13:03:17;;;;;;;;;;;;;;;;;;4969507;28;19922;-89
2023/07/28 13:06:04;;;;;;;;;;;;;;;;;;4963288;28;19918;-89
2023/07/28 13:08:50;;;;;;;;;;;;;;;;;;4950211;28;19946;-87
2023/07/28 13:11:36;;;;;;;;;;;;;;;;;;4965439;28;20386;-89
2023/07/28 13:14:23;;;;;;;;;;;;;;;;;;4970954;28;19919;-88
2023/07/28 13:17:11;;;;;;;;;;;;;;;;;;4954961;28;20409;-88
2023/07/28 13:19:58;;;;;;;;;;;;;;;;;;4967778;28;20378;-90
2023/07/28 13:22:44;;;;;;;;;;;;;;;;;;4961211;28;20558;-90
2023/07/28 13:25:31;;;;;;;;;;;;;;;;;;4951394;28;19915;-90
2023/07/28 13:28:17;;;;;;;;;;;;;;;;;;4969634;28;19952;-89
2023/07/28 13:31:04;;;;;;;;;;;;;;;;;;4972005;28;19995;-89
2023/07/28 13:33:51;;;;;;;;;;;;;;;;;;4972642;28;19925;-88
2023/07/28 13:36:37;;;;;;;;;;;;;;;;;;4971046;28;19930;-88
2023/07/28 13:39:24;;;;;;;;;;;;;;;;;;4966538;28;19929;-89
2023/07/28 13:42:11;;;;;;;;;;;;;;;;;;4961977;28;19915;-87
2023/07/28 13:44:58;;;;;;;;;;;;;;;;;;4963340;28;19918;-88
2023/07/28 13:47:44;;;;;;;;;;;;;;;;;;4964525;28;19915;-89
2023/07/28 13:50:31;;;;;;;;;;;;;;;;;;4960065;28;19918;-89
2023/07/28 13:53:17;;;;;;;;;;;;;;;;;;4980230;28;20001;-88
2023/07/28 13:56:04;;;;;;;;;;;;;;;;;;4971209;28;19945;-88
2023/07/28 13:58:50;;;;;;;;;;;;;;;;;;4956552;28;19935;-90
2023/07/28 14:01:37;;;;;;;;;;;;;;;;;;4972808;28;19918;-90
2023/07/28 14:04:23;;;;;;;;;;;;;;;;;;4938790;28;19925;-89
2023/07/28 14:07:10;;;;;;;;;;;;;;;;;;4937763;28;20430;-89
2023/07/28 14:09:56;;;;;;;;;;;;;;;;;;4957866;28;19930;-84
2023/07/28 14:12:43;;;;;;;;;;;;;;;;;;4951939;28;19918;-85
2023/07/28 14:15:29;;;;;;;;;;;;;;;;;;4947121;29;19922;-83
2023/07/28 14:18:16;;;;;;;;;;;;;;;;;;4940582;28;19919;-84
2023/07/28 14:21:02;;;;;;;;;;;;;;;;;;4950422;28;19930;-83
2023/07/28 14:23:49;;;;;;;;;;;;;;;;;;4934243;28;19932;-85
2023/07/28 14:26:35;;;;;;;;;;;;;;;;;;4937346;28;19914;-82
2023/07/28 14:29:22;;;;;;;;;;;;;;;;;;4930602;28;19925;-82
2023/07/28 14:32:08;;;;;;;;;;;;;;;;;;4939260;28;20397;-83
2023/07/28 14:34:55;;;;;;;;;;;;;;;;;;4949367;28;19922;-83
2023/07/28 14:37:41;;;;;;;;;;;;;;;;;;4949729;28;20289;-83
2023/07/28 14:40:28;;;;;;;;;;;;;;;;;;4943780;28;19926;-82
2023/07/28 14:43:15;;;;;;;;;;;;;;;;;;4934600;29;19929;-82
2023/07/28 14:46:01;;;;;;;;;;;;;;;;;;4938147;28;19918;-84
2023/07/28 14:48:49;;;;;;;;;;;;;;;;;;4939903;28;19923;-84
2023/07/28 14:51:36;;;;;;;;;;;;;;;;;;4930741;28;19941;-84
2023/07/28 14:54:22;;;;;;;;;;;;;;;;;;4950644;28;19929;-85
2023/07/28 14:57:14;;;;;;;;;;;;;;;;;;4928696;28;19933;-84
2023/07/28 15:00:00;;;;;;;;;;;;;;;;;;4957640;28;19918;-82
2023/07/28 15:02:46;;;;;;;;;;;;;;;;;;4968300;28;19937;-80
2023/07/28 15:05:33;;;;;;;;;;;;;;;;;;4958203;28;19926;-81
2023/07/28 15:08:19;;;;;;;;;;;;;;;;;;4946923;28;19930;-84
2023/07/28 15:11:06;;;;;;;;;;;;;;;;;;4963195;28;19923;-85
2023/07/28 15:13:52;;;;;;;;;;;;;;;;;;4961459;28;19923;-84
2023/07/28 15:16:39;;;;;;;;;;;;;;;;;;4968896;28;19929;-85
2023/07/28 15:19:25;;;;;;;;;;;;;;;;;;4960062;28;19921;-85
2023/07/28 15:22:12;;;;;;;;;;;;;;;;;;4957006;28;19938;-83
2023/07/28 15:24:58;;;;;;;;;;;;;;;;;;4960988;28;20290;-82
2023/07/28 15:27:45;;;;;;;;;;;;;;;;;;4945788;28;19923;-82
2023/07/28 15:30:31;;;;;;;;;;;;;;;;;;4955037;28;19920;-81
2023/07/28 15:33:18;;;;;;;;;;;;;;;;;;4963361;28;20374;-83
2023/07/28 15:36:04;;;;;;;;;;;;;;;;;;4965364;28;19933;-84
2023/07/28 15:38:51;;;;;;;;;;;;;;;;;;4959644;28;19928;-83
2023/07/28 15:41:37;;;;;;;;;;;;;;;;;;4953442;28;19926;-85
2023/07/28 15:44:24;;;;;;;;;;;;;;;;;;4935806;28;19922;-77
2023/07/28 15:47:12;;;;;;;;;;;;;;;;;;4955100;28;19929;-76
2023/07/28 15:49:58;;;;;;;;;;;;;;;;;;4943874;28;19926;-79
2023/07/28 15:52:45;;;;;;;;;;;;;;;;;;4959734;28;19918;-78
2023/07/28 15:55:31;;;;;;;;;;;;;;;;;;4965131;28;19929;-78
2023/07/28 15:58:17;;;;;;;;;;;;;;;;;;4951569;28;20383;-75
2023/07/28 16:01:05;;;;;;;;;;;;;;;;;;4942202;28;19919;-77
2023/07/28 16:03:51;;;;;;;;;;;;;;;;;;4940585;28;19922;-77
2023/07/28 16:06:38;;;;;;;;;;;;;;;;;;4936843;28;19923;-77
2023/07/28 16:09:24;;;;;;;;;;;;;;;;;;4941532;28;19929;-76
2023/07/28 16:12:11;;;;;;;;;;;;;;;;;;4937719;28;19919;-77
2023/07/28 16:14:57;;;;;;;;;;;;;;;;;;4964805;28;20526;-76
2023/07/28 16:17:44;;;;;;;;;;;;;;;;;;4962391;28;19926;-76
2023/07/28 16:20:30;;;;;;;;;;;;;;;;;;4942159;28;19927;-77
2023/07/28 16:23:17;;;;;;;;;;;;;;;;;;4949513;28;19918;-77
2023/07/28 16:26:03;;;;;;;;;;;;;;;;;;4942702;28;19957;-77
2023/07/28 16:28:50;;;;;;;;;;;;;;;;;;4959781;28;19933;-76
2023/07/28 16:31:36;;;;;;;;;;;;;;;;;;4956894;28;19922;-76
2023/07/28 16:34:23;;;;;;;;;;;;;;;;;;4964099;28;19953;-77
2023/07/28 16:37:09;;;;;;;;;;;;;;;;;;4956000;28;19945;-76
2023/07/28 16:39:56;;;;;;;;;;;;;;;;;;4939121;28;19942;-76
2023/07/28 16:42:43;;;;;;;;;;;;;;;;;;4950662;28;19918;-77
2023/07/28 16:45:29;;;;;;;;;;;;;;;;;;4958761;28;19929;-76
2023/07/28 16:48:16;;;;;;;;;;;;;;;;;;4959571;28;19918;-77
2023/07/28 16:51:03;;;;;;;;;;;;;;;;;;4964246;28;19929;-77
2023/07/28 16:53:51;;;;;;;;;;;;;;;;;;4963369;28;19925;-76
2023/07/28 16:56:39;;;;;;;;;;;;;;;;;;4964432;28;19926;-76
2023/07/28 16:59:25;;;;;;;;;;;;;;;;;;4950701;28;19946;-76
2023/07/28 17:02:12;;;;;;;;;;;;;;;;;;4960719;28;19927;-76
2023/07/28 17:04:58;;;;;;;;;;;;;;;;;;4964257;28;19921;-77
2023/07/28 17:07:45;;;;;;;;;;;;;;;;;;4965802;28;19918;-76
2023/07/28 17:10:33;;;;;;;;;;;;;;;;;;4952425;28;25759;-76
2023/07/28 17:13:21;;;;;;;;;;;;;;;;;;4960222;28;19918;-77
2023/07/28 17:16:07;;;;;;;;;;;;;;;;;;4949967;28;20391;-77
2023/07/28 17:18:54;;;;;;;;;;;;;;;;;;4945071;28;19927;-77
2023/07/28 17:21:40;;;;;;;;;;;;;;;;;;4950467;28;19926;-77
2023/07/28 17:24:27;;;;;;;;;;;;;;;;;;4952294;28;19932;-77
2023/07/28 17:27:13;;;;;;;;;;;;;;;;;;4941088;28;19929;-78
2023/07/28 17:30:00;;;;;;;;;;;;;;;;;;4955343;28;20449;-78
2023/07/28 17:32:46;;;;;;;;;;;;;;;;;;4963971;28;19922;-78
2023/07/28 17:35:33;;;;;;;;;;;;;;;;;;4962344;28;19921;-78
2023/07/28 17:38:19;;;;;;;;;;;;;;;;;;4958223;28;19927;-78
2023/07/28 17:41:06;;;;;;;;;;;;;;;;;;4965962;28;19933;-79
2023/07/28 17:43:53;;;;;;;;;;;;;;;;;;4953746;28;19953;-78
2023/07/28 17:46:39;;;;;;;;;;;;;;;;;;4947005;28;19919;-89
2023/07/28 17:49:26;;;;;;;;;;;;;;;;;;4951111;28;19923;-80
2023/07/28 17:52:12;;;;;;;;;;;;;;;;;;4970186;28;19932;-80
2023/07/28 17:54:59;;;;;;;;;;;;;;;;;;4959152;28;19919;-79
2023/07/28 17:57:45;;;;;;;;;;;;;;;;;;4953385;28;19930;-80
2023/07/28 18:00:32;;;;;;;;;;;;;;;;;;4954978;28;19923;-81
2023/07/28 18:03:18;;;;;;;;;;;;;;;;;;4935525;28;19919;-82
2023/07/28 18:06:05;;;;;;;;;;;;;;;;;;4951542;28;19926;-77
2023/07/28 18:08:51;;;;;;;;;;;;;;;;;;4937846;28;19923;-79
2023/07/28 18:11:38;;;;;;;;;;;;;;;;;;4941347;28;20413;-82
2023/07/28 18:14:24;;;;;;;;;;;;;;;;;;4964868;28;20491;-82
2023/07/28 18:17:11;;;;;;;;;;;;;;;;;;4968919;28;19942;-83
2023/07/28 18:19:58;;;;;;;;;;;;;;;;;;4963832;28;19922;-82
2023/07/28 18:22:44;;;;;;;;;;;;;;;;;;4959555;28;20390;-81
2023/07/28 18:25:31;;;;;;;;;;;;;;;;;;4957936;28;19951;-80
2023/07/28 18:28:17;;;;;;;;;;;;;;;;;;4964257;28;20116;-82
2023/07/28 18:31:04;;;;;;;;;;;;;;;;;;4961002;28;19930;-85
2023/07/28 18:33:53;;;;;;;;;;;;;;;;;;4938954;28;19945;-86
2023/07/28 18:36:39;;;;;;;;;;;;;;;;;;4916944;29;19935;-82
2023/07/28 18:39:26;;;;;;;;;;;;;;;;;;4948019;28;19926;-80
2023/07/28 18:42:12;;;;;;;;;;;;;;;;;;4961682;28;19938;-79
2023/07/28 18:44:59;;;;;;;;;;;;;;;;;;4954412;28;19922;-82
2023/07/28 18:47:45;;;;;;;;;;;;;;;;;;4962400;28;19997;-79
2023/07/28 18:50:32;;;;;;;;;;;;;;;;;;4968781;28;20358;-79
2023/07/28 18:53:18;;;;;;;;;;;;;;;;;;4950841;28;19939;-79
2023/07/28 18:56:05;;;;;;;;;;;;;;;;;;4956984;28;19923;-79
2023/07/28 18:58:51;;;;;;;;;;;;;;;;;;4944935;28;19957;-79